Sheldon Creek, Vermont
Current Conditions -  °F | °C
As of 6:15 PM on Wednesday 26 Nov 2014 (Local Time) from KFSO Reporting Station
Light Snow Light Snow  
Wind Chill: 23°   Ceiling: 1000
Heat Index: 29°   Visibility: 3mi
Dew Point: 28°   Wind: 6mph
Humidity: 94%   Direction: 10°N
Pressure: 30.1"   Gusts: NA
Location:  44.8776°N, 72.9201°W
Report Text: KFSO 262315Z AUTO 01005KT 3SM -SN SCT004 BKN010 OVC022 M02/M02 A3010 RMK AO2 T10171025
Loading
Personal Weather Stations






























Interactive Weather Map New forecast layout! Learn more

10-Day Weather Forecast

Advertisements
Track Severe Weather on mobile